Time;durP1;ratioP1;P1;durP2;ratioP2;P2;SDS_P1;SDS_P2;PMS_P1;PMS_P2;Temp;Humidity;BMP_temperature;BMP_pressure;BME280_temperature;BME280_humidity;BME280_pressure;Samples;Min_cycle;Max_cycle;Signal;HPM_P1;HPM_P2
2022/03/25 00:00:44;;;;;;;6.00;3.50;;;19.60;45.00;;;;;;6194640;28;20298;-67
2022/03/25 00:03:45;;;;;;;4.97;3.17;;;19.60;45.10;;;;;;6194171;28;20069;-67
2022/03/25 00:06:45;;;;;;;6.35;3.70;;;19.60;45.10;;;;;;6194475;28;20038;-67
2022/03/25 00:09:46;;;;;;;5.95;3.70;;;19.60;45.10;;;;;;6194491;28;20018;-67
2022/03/25 00:12:46;;;;;;;6.28;3.38;;;19.60;45.10;;;;;;6194185;28;20088;-67
2022/03/25 00:15:47;;;;;;;5.38;3.30;;;19.60;45.10;;;;;;6193787;28;20026;-67
2022/03/25 00:18:47;;;;;;;5.65;3.13;;;19.60;45.10;;;;;;6193219;28;20034;-67
2022/03/25 00:21:48;;;;;;;5.63;3.25;;;19.60;45.10;;;;;;6193953;28;20026;-67
2022/03/25 00:24:48;;;;;;;5.32;3.33;;;19.60;45.10;;;;;;6193321;28;20038;-67
2022/03/25 00:27:49;;;;;;;4.75;3.15;;;19.60;45.10;;;;;;6193125;28;20173;-67
2022/03/25 00:30:50;;;;;;;5.10;3.53;;;19.60;45.10;;;;;;6193648;28;20027;-67
2022/03/25 00:33:51;;;;;;;4.35;3.08;;;19.60;45.10;;;;;;6193625;28;20026;-67
2022/03/25 00:36:51;;;;;;;6.72;3.88;;;19.60;45.10;;;;;;6193753;28;20481;-67
2022/03/25 00:39:52;;;;;;;6.25;3.60;;;19.60;45.10;;;;;;6194284;28;20038;-67
2022/03/25 00:42:53;;;;;;;6.53;3.70;;;19.60;45.10;;;;;;6193512;28;20378;-67
2022/03/25 00:45:53;;;;;;;5.45;3.28;;;19.60;45.10;;;;;;6193923;28;20088;-67
2022/03/25 00:48:56;;;;;;;6.05;3.53;;;19.60;45.10;;;;;;6193416;28;20031;-67
2022/03/25 00:51:57;;;;;;;4.68;2.83;;;19.60;45.10;;;;;;6193575;28;20029;-67
2022/03/25 00:54:57;;;;;;;5.85;3.50;;;19.60;45.10;;;;;;6193353;28;20058;-67
2022/03/25 00:57:58;;;;;;;5.75;3.17;;;19.60;45.10;;;;;;6193737;28;20030;-67
2022/03/25 01:00:59;;;;;;;5.57;3.20;;;19.60;45.10;;;;;;6193277;28;20097;-67
2022/03/25 01:03:59;;;;;;;4.78;3.22;;;19.60;45.10;;;;;;6193652;28;20026;-67
2022/03/25 01:07:01;;;;;;;5.05;3.10;;;19.60;45.10;;;;;;6192934;28;20385;-68
2022/03/25 01:10:02;;;;;;;4.68;3.50;;;19.60;45.10;;;;;;6193094;28;20038;-67
2022/03/25 01:13:04;;;;;;;4.60;3.08;;;19.60;45.10;;;;;;6193638;28;20022;-67
2022/03/25 01:16:05;;;;;;;6.32;3.42;;;19.60;45.10;;;;;;6192959;28;20029;-67
2022/03/25 01:19:06;;;;;;;4.90;3.13;;;19.60;45.10;;;;;;6193420;28;20029;-67
2022/03/25 01:22:07;;;;;;;5.10;2.80;;;19.60;45.10;;;;;;6193367;28;20413;-67
2022/03/25 01:25:08;;;;;;;5.47;3.22;;;19.60;45.10;;;;;;6193465;28;20109;-67
2022/03/25 01:28:09;;;;;;;7.28;3.35;;;19.60;45.10;;;;;;6193761;28;20054;-67
2022/03/25 01:31:09;;;;;;;5.38;3.10;;;19.60;45.10;;;;;;6197712;28;20029;-67
2022/03/25 01:34:10;;;;;;;5.13;3.40;;;19.60;45.10;;;;;;6197661;28;20027;-67
2022/03/25 01:37:11;;;;;;;5.80;3.50;;;19.60;45.10;;;;;;6197502;28;20320;-67
2022/03/25 01:40:12;;;;;;;5.28;3.38;;;19.60;45.10;;;;;;6197439;28;20030;-67
2022/03/25 01:43:12;;;;;;;4.55;2.88;;;19.60;45.10;;;;;;6197239;28;20061;-67
2022/03/25 01:46:13;;;;;;;5.50;3.05;;;19.60;45.10;;;;;;6197250;28;20034;-67
2022/03/25 01:49:15;;;;;;;4.55;3.00;;;19.60;45.10;;;;;;6197711;28;20474;-67
2022/03/25 01:52:16;;;;;;;4.88;3.40;;;19.60;45.10;;;;;;6197124;28;20026;-67
2022/03/25 01:55:21;;;;;;;5.30;3.38;;;19.60;45.10;;;;;;6197090;28;20026;-67
2022/03/25 01:58:22;;;;;;;;;;;19.60;45.10;;;;;;6197455;28;20033;-67
2022/03/25 02:01:25;;;;;;;6.57;3.08;;;19.60;45.20;;;;;;6196835;28;19906;-67
2022/03/25 02:04:26;;;;;;;5.90;3.38;;;19.60;45.10;;;;;;6197234;28;20033;-67
2022/03/25 02:07:26;;;;;;;4.22;2.92;;;19.60;45.10;;;;;;6197236;28;20038;-67
2022/03/25 02:10:27;;;;;;;3.95;2.97;;;19.60;45.10;;;;;;6196762;28;20571;-67
2022/03/25 02:13:27;;;;;;;5.53;3.60;;;19.60;45.10;;;;;;6196937;28;20034;-67
2022/03/25 02:16:42;;;;;;;4.30;3.08;;;19.60;45.10;;;;;;6196506;28;20058;-67
2022/03/25 02:19:43;;;;;;;5.13;3.17;;;19.60;45.20;;;;;;6196760;28;20137;-67
2022/03/25 02:22:44;;;;;;;5.20;3.35;;;19.60;45.10;;;;;;6197204;28;20181;-67
2022/03/25 02:25:50;;;;;;;4.85;3.28;;;19.60;45.20;;;;;;6196229;28;20034;-67
2022/03/25 02:28:50;;;;;;;4.75;3.03;;;19.60;45.20;;;;;;6195822;28;20058;-67
2022/03/25 02:31:51;;;;;;;3.97;2.95;;;19.60;45.10;;;;;;6196850;28;20041;-67
2022/03/25 02:34:51;;;;;;;5.00;3.25;;;19.60;45.10;;;;;;6196362;28;20386;-67
2022/03/25 02:37:52;;;;;;;4.57;3.05;;;19.60;45.10;;;;;;6196520;28;20106;-67
2022/03/25 02:40:52;;;;;;;4.68;3.00;;;19.60;45.10;;;;;;6195960;28;20116;-67
2022/03/25 02:43:53;;;;;;;3.97;2.88;;;19.60;45.10;;;;;;6196519;28;20470;-67
2022/03/25 02:46:53;;;;;;;3.83;2.65;;;19.60;45.10;;;;;;6195831;28;20728;-67
2022/03/25 02:49:54;;;;;;;3.63;2.83;;;19.60;45.10;;;;;;6196213;28;20030;-67
2022/03/25 02:52:56;;;;;;;3.38;2.58;;;19.60;45.10;;;;;;6196197;28;20034;-67
2022/03/25 02:55:56;;;;;;;4.47;3.00;;;19.60;45.10;;;;;;6196141;28;20061;-67
2022/03/25 02:58:57;;;;;;;6.20;3.28;;;19.60;45.10;;;;;;6195422;28;20394;-67
2022/03/25 03:01:58;;;;;;;4.28;3.08;;;19.60;45.20;;;;;;6195839;28;20026;-67
2022/03/25 03:04:58;;;;;;;6.30;3.08;;;19.60;45.10;;;;;;6196017;28;20536;-67
2022/03/25 03:07:59;;;;;;;4.97;3.10;;;19.60;45.10;;;;;;6195532;28;20065;-67
2022/03/25 03:10:59;;;;;;;4.35;3.03;;;19.60;45.10;;;;;;6195537;28;20097;-67
2022/03/25 03:14:00;;;;;;;4.78;2.97;;;19.60;45.10;;;;;;6195541;28;20064;-67
2022/03/25 03:17:00;;;;;;;4.30;3.08;;;19.60;45.10;;;;;;6195447;28;20482;-67
2022/03/25 03:20:02;;;;;;;3.88;2.97;;;19.60;45.10;;;;;;6195316;28;20046;-67
2022/03/25 03:23:02;;;;;;;4.15;2.97;;;19.60;45.10;;;;;;6194950;28;20477;-67
2022/03/25 03:26:03;;;;;;;3.88;3.05;;;19.60;45.10;;;;;;6195426;28;20027;-67
2022/03/25 03:29:03;;;;;;;5.22;3.10;;;19.60;45.10;;;;;;6194711;28;20062;-67
2022/03/25 03:32:05;;;;;;;3.95;2.90;;;19.60;45.10;;;;;;6194966;28;20023;-67
2022/03/25 03:35:06;;;;;;;3.90;2.60;;;19.60;45.10;;;;;;6195274;28;20049;-67
2022/03/25 03:38:07;;;;;;;3.92;3.05;;;19.60;45.10;;;;;;6195223;28;20349;-67
2022/03/25 03:41:07;;;;;;;4.28;3.13;;;19.60;45.10;;;;;;6195823;28;20419;-67
2022/03/25 03:44:08;;;;;;;5.55;2.95;;;19.60;45.10;;;;;;6195107;28;20138;-67
2022/03/25 03:47:10;;;;;;;4.05;2.70;;;19.60;45.10;;;;;;6194536;28;20042;-67
2022/03/25 03:50:13;;;;;;;3.55;2.90;;;19.60;45.10;;;;;;6194344;28;20059;-67
2022/03/25 03:53:14;;;;;;;4.55;2.80;;;19.60;45.10;;;;;;6193935;28;20022;-67
2022/03/25 03:56:15;;;;;;;4.35;2.90;;;19.60;45.10;;;;;;6194647;28;20027;-67
2022/03/25 03:59:16;;;;;;;4.32;3.05;;;19.60;45.10;;;;;;6194711;28;20088;-67
2022/03/25 04:02:16;;;;;;;4.55;3.03;;;19.60;45.10;;;;;;6194024;28;20413;-67
2022/03/25 04:05:17;;;;;;;5.45;3.22;;;19.60;45.10;;;;;;6194816;28;20022;-67
2022/03/25 04:08:17;;;;;;;3.83;3.00;;;19.60;45.10;;;;;;6194103;28;20343;-67
2022/03/25 04:11:18;;;;;;;4.07;2.90;;;19.60;45.10;;;;;;6194018;28;20058;-67
2022/03/25 04:14:20;;;;;;;4.15;3.30;;;19.60;45.10;;;;;;6194216;28;20065;-67
2022/03/25 04:17:23;;;;;;;4.13;3.13;;;19.60;45.00;;;;;;6194011;28;20470;-67
2022/03/25 04:20:25;;;;;;;5.40;3.30;;;19.60;45.10;;;;;;6193877;28;20057;-67
2022/03/25 04:23:26;;;;;;;5.20;2.95;;;19.60;45.00;;;;;;6193957;28;20034;-67
2022/03/25 04:26:26;;;;;;;4.28;3.00;;;19.50;44.90;;;;;;6194222;28;20488;-67
2022/03/25 04:29:27;;;;;;;3.67;3.00;;;19.60;45.10;;;;;;6193758;28;20533;-67
2022/03/25 04:32:28;;;;;;;4.53;3.42;;;19.60;45.10;;;;;;6193847;28;20073;-67
2022/03/25 04:35:29;;;;;;;4.15;3.10;;;19.60;45.00;;;;;;6193985;28;20065;-67
2022/03/25 04:38:30;;;;;;;3.95;2.83;;;19.50;44.80;;;;;;6193551;28;20046;-67
2022/03/25 04:41:30;;;;;;;4.80;2.67;;;19.60;45.00;;;;;;6193486;28;20069;-67
2022/03/25 04:44:31;;;;;;;3.78;3.03;;;19.60;45.00;;;;;;6193561;28;20026;-67
2022/03/25 04:47:31;;;;;;;4.35;3.10;;;19.60;45.00;;;;;;6193746;28;20038;-67
2022/03/25 04:50:32;;;;;;;4.55;2.90;;;19.50;44.90;;;;;;6193524;28;20567;-67
2022/03/25 04:53:34;;;;;;;5.65;3.30;;;19.50;44.90;;;;;;6193850;28;20030;-67
2022/03/25 04:56:36;;;;;;;3.17;2.33;;;19.50;44.90;;;;;;6192059;28;20068;-67
2022/03/25 05:00:32;;;;;;;5.07;3.40;;;19.60;45.00;;;;;;6193847;28;20027;-67
2022/03/25 05:03:33;;;;;;;5.43;3.25;;;19.50;44.90;;;;;;6194743;28;20030;-67
2022/03/25 05:06:34;;;;;;;4.15;3.10;;;19.60;45.00;;;;;;6198401;28;20066;-67
2022/03/25 05:09:34;;;;;;;4.50;3.20;;;19.50;44.70;;;;;;6198521;28;20026;-67
2022/03/25 05:12:35;;;;;;;5.13;3.35;;;19.50;44.70;;;;;;6198121;28;20037;-67
2022/03/25 05:15:35;;;;;;;3.22;2.75;;;19.50;44.70;;;;;;6198139;28;20034;-67
2022/03/25 05:18:36;;;;;;;4.72;2.90;;;19.50;44.60;;;;;;6198534;28;20057;-67
2022/03/25 05:21:37;;;;;;;4.55;2.70;;;19.60;44.70;;;;;;6197055;28;20034;-67
2022/03/25 05:24:38;;;;;;;5.53;3.45;;;19.60;44.70;;;;;;6198248;28;20030;-67
2022/03/25 05:27:42;;;;;;;4.50;3.28;;;19.60;44.70;;;;;;6197506;28;20528;-67
2022/03/25 05:30:44;;;;;;;3.78;2.83;;;19.60;44.60;;;;;;6197670;28;20022;-67
2022/03/25 05:33:45;;;;;;;3.70;2.78;;;19.60;44.60;;;;;;6197952;28;20428;-67
2022/03/25 05:36:45;;;;;;;3.88;2.80;;;19.60;44.60;;;;;;6198053;28;20022;-67
2022/03/25 05:39:46;;;;;;;5.10;3.35;;;19.60;44.60;;;;;;6197842;28;20028;-67
2022/03/25 05:42:48;;;;;;;3.85;2.63;;;19.60;44.70;;;;;;6197517;28;20027;-67
2022/03/25 05:45:48;;;;;;;5.10;3.00;;;19.60;44.70;;;;;;6197142;28;20554;-67
2022/03/25 05:48:49;;;;;;;4.47;3.08;;;19.60;44.70;;;;;;6197546;28;20023;-67
2022/03/25 05:51:49;;;;;;;5.88;2.65;;;19.60;44.80;;;;;;6197336;28;20053;-67
2022/03/25 05:54:50;;;;;;;4.20;3.17;;;19.60;44.80;;;;;;6197845;28;20109;-67
2022/03/25 05:57:50;;;;;;;4.47;3.30;;;19.60;44.80;;;;;;6197208;28;20029;-67
2022/03/25 06:00:51;;;;;;;3.58;2.90;;;19.60;44.70;;;;;;6195865;28;20165;-67
2022/03/25 06:03:52;;;;;;;4.07;2.60;;;19.60;44.80;;;;;;6173248;28;20437;-67
2022/03/25 06:06:52;;;;;;;3.40;2.60;;;19.60;44.80;;;;;;6172885;28;20039;-67
2022/03/25 06:09:53;;;;;;;4.00;3.20;;;19.60;44.80;;;;;;6172730;28;20074;-67
2022/03/25 06:12:53;;;;;;;4.43;3.03;;;19.60;44.90;;;;;;6172948;28;20063;-67
2022/03/25 06:15:55;;;;;;;4.68;2.90;;;19.60;44.80;;;;;;6171533;28;20023;-67
2022/03/25 06:18:55;;;;;;;3.50;2.90;;;19.60;44.80;;;;;;6172404;28;20414;-67
2022/03/25 06:21:56;;;;;;;4.13;2.83;;;19.60;44.90;;;;;;6171381;28;20178;-67
2022/03/25 06:24:57;;;;;;;4.25;3.20;;;19.60;44.80;;;;;;6177507;28;20049;-67
2022/03/25 06:28:00;;;;;;;3.30;2.75;;;19.60;44.80;;;;;;6196277;28;20164;-67
2022/03/25 06:31:01;;;;;;;5.25;3.00;;;19.60;44.80;;;;;;6196316;28;20227;-67
2022/03/25 06:34:03;;;;;;;4.80;3.03;;;19.60;44.90;;;;;;6195989;28;20026;-67
2022/03/25 06:37:04;;;;;;;5.32;3.38;;;19.60;44.80;;;;;;6196107;28;20026;-67
2022/03/25 06:40:07;;;;;;;3.90;2.60;;;19.60;44.80;;;;;;6196644;28;20088;-67
2022/03/25 06:43:08;;;;;;;3.83;2.83;;;19.60;44.80;;;;;;6184183;28;20038;-66
2022/03/25 06:46:09;;;;;;;4.47;2.80;;;19.60;44.80;;;;;;6188883;28;20041;-67
2022/03/25 06:49:10;;;;;;;4.05;2.92;;;19.60;44.80;;;;;;6196670;28;20126;-67
2022/03/25 06:52:11;;;;;;;4.25;2.83;;;19.60;44.80;;;;;;6195103;28;20046;-67
2022/03/25 06:55:13;;;;;;;6.97;2.65;;;19.60;44.70;;;;;;6194460;28;20080;-67
2022/03/25 06:58:14;;;;;;;8.35;3.05;;;19.60;44.80;;;;;;6189301;28;20628;-67
2022/03/25 07:01:16;;;;;;;4.25;2.80;;;19.60;44.70;;;;;;6189877;28;20055;-67
2022/03/25 07:04:17;;;;;;;6.53;2.80;;;19.60;44.80;;;;;;6203780;28;20059;-67
2022/03/25 07:07:21;;;;;;;5.70;3.17;;;19.60;44.80;;;;;;6194988;28;20030;-67
2022/03/25 07:10:26;;;;;;;6.70;3.30;;;19.60;44.80;;;;;;6194691;28;20469;-67
2022/03/25 07:13:26;;;;;;;;;;;19.60;44.80;;;;;;6196438;28;20054;-67
2022/03/25 07:16:27;;;;;;;5.20;3.35;;;19.70;44.90;;;;;;6196763;28;19928;-67
2022/03/25 07:19:28;;;;;;;5.13;3.35;;;19.70;44.80;;;;;;6196188;28;20037;-67
2022/03/25 07:22:28;;;;;;;5.65;2.88;;;19.70;44.90;;;;;;6195696;28;20034;-67
2022/03/25 07:25:30;;;;;;;3.47;2.70;;;19.70;44.90;;;;;;6195505;28;20035;-67
2022/03/25 07:28:32;;;;;;;4.65;3.17;;;19.70;44.90;;;;;;6195452;28;20144;-67
2022/03/25 07:31:32;;;;;;;7.45;3.15;;;19.70;44.90;;;;;;6195587;28;20097;-67
2022/03/25 07:34:36;;;;;;;5.32;3.10;;;19.70;44.90;;;;;;6186942;28;20032;-67
2022/03/25 07:37:38;;;;;;;3.95;2.70;;;19.60;44.90;;;;;;6174501;28;20039;-67
2022/03/25 07:40:39;;;;;;;5.88;3.33;;;19.60;44.90;;;;;;6195350;28;20109;-67
2022/03/25 07:43:39;;;;;;;4.47;3.00;;;19.60;44.90;;;;;;6195148;28;20076;-67
2022/03/25 07:46:40;;;;;;;5.40;3.00;;;19.60;44.80;;;;;;6195191;28;20026;-67
2022/03/25 07:49:42;;;;;;;5.55;3.20;;;19.70;44.90;;;;;;6196842;28;20050;-67
2022/03/25 07:52:42;;;;;;;5.85;3.25;;;19.70;44.90;;;;;;6183876;28;20113;-67
2022/03/25 07:55:44;;;;;;;4.93;3.17;;;19.70;44.90;;;;;;6194286;28;20386;-68
2022/03/25 07:58:45;;;;;;;14.52;3.30;;;19.70;45.00;;;;;;6196000;28;20434;-67
2022/03/25 08:01:45;;;;;;;5.90;3.30;;;19.70;45.30;;;;;;6196067;28;20026;-67
2022/03/25 08:04:46;;;;;;;5.30;3.35;;;19.70;45.10;;;;;;6191970;28;20054;-67
2022/03/25 08:07:54;;;;;;;7.35;3.47;;;19.70;45.20;;;;;;6220375;28;20527;-67
2022/03/25 08:10:56;;;;;;;9.18;3.15;;;19.80;44.90;;;;;;6218747;28;20291;-67
2022/03/25 08:13:56;;;;;;;5.43;3.08;;;19.80;44.60;;;;;;6204831;28;20053;-67
2022/03/25 08:16:57;;;;;;;5.95;3.40;;;19.80;44.50;;;;;;6194359;28;20497;-67
2022/03/25 08:19:57;;;;;;;4.25;2.70;;;19.90;44.40;;;;;;6195467;28;20033;-67
2022/03/25 08:22:59;;;;;;;7.20;3.17;;;19.90;44.30;;;;;;6195845;28;20045;-66
2022/03/25 08:29:20;;;;;;;5.45;3.10;;;20.00;44.10;;;;;;6201276;28;20493;-68
2022/03/25 08:32:20;;;;;;;5.90;3.05;;;20.00;44.30;;;;;;6194783;28;20037;-67
2022/03/25 08:35:21;;;;;;;5.38;3.20;;;20.00;44.60;;;;;;6192399;28;20026;-67
2022/03/25 08:38:21;;;;;;;6.30;2.88;;;20.00;44.40;;;;;;6190778;28;20041;-68
2022/03/25 08:41:22;;;;;;;5.57;3.20;;;20.00;44.30;;;;;;6195369;28;20101;-67
2022/03/25 08:44:22;;;;;;;5.18;3.17;;;20.00;44.40;;;;;;6186877;28;20027;-67
2022/03/25 08:47:23;;;;;;;4.78;3.00;;;19.90;44.30;;;;;;6171227;28;20038;-68
2022/03/25 08:50:24;;;;;;;6.20;3.20;;;20.00;44.40;;;;;;6183073;28;20129;-68
2022/03/25 08:53:25;;;;;;;4.80;2.90;;;19.90;44.30;;;;;;6171043;28;20042;-67
2022/03/25 08:56:27;;;;;;;6.30;3.28;;;19.90;44.30;;;;;;6171009;28;20023;-68
2022/03/25 08:59:27;;;;;;;4.43;3.00;;;19.90;44.40;;;;;;6171001;28;20057;-67
2022/03/25 09:02:28;;;;;;;5.55;2.88;;;19.90;44.30;;;;;;6171706;28;20034;-68
2022/03/25 09:05:28;;;;;;;4.75;2.60;;;19.90;44.30;;;;;;6171138;28;20437;-67
2022/03/25 09:08:30;;;;;;;3.72;2.75;;;19.90;44.30;;;;;;6183794;28;20113;-67
2022/03/25 09:11:31;;;;;;;3.28;2.63;;;19.90;44.40;;;;;;6195388;28;20022;-68
2022/03/25 09:14:32;;;;;;;4.53;2.80;;;19.90;44.40;;;;;;6194566;28;20115;-68
2022/03/25 09:17:33;;;;;;;4.95;3.10;;;19.90;44.50;;;;;;6194868;28;20080;-68
2022/03/25 09:20:33;;;;;;;4.20;2.88;;;19.90;44.50;;;;;;6194442;28;20536;-67
2022/03/25 09:23:34;;;;;;;4.88;2.35;;;19.90;44.40;;;;;;6195044;28;20026;-68
2022/03/25 09:26:35;;;;;;;3.42;2.58;;;19.90;44.60;;;;;;6194327;28;20030;-68
2022/03/25 09:29:35;;;;;;;5.10;2.90;;;20.00;44.70;;;;;;6194626;28;20041;-67
2022/03/25 09:32:36;;;;;;;4.50;3.03;;;20.00;44.90;;;;;;6194465;28;20038;-67
2022/03/25 09:35:38;;;;;;;3.95;2.90;;;20.00;44.70;;;;;;6194586;28;20114;-67
2022/03/25 09:38:39;;;;;;;3.67;2.83;;;20.00;44.60;;;;;;6185755;28;20089;-67
2022/03/25 09:41:40;;;;;;;4.45;2.83;;;20.00;44.60;;;;;;6170659;28;20462;-67
2022/03/25 09:44:42;;;;;;;4.85;2.83;;;20.00;44.70;;;;;;6190848;28;20031;-68
2022/03/25 09:47:44;;;;;;;3.50;2.90;;;20.00;44.80;;;;;;6195109;28;20030;-67
2022/03/25 09:50:44;;;;;;;4.65;2.70;;;20.00;44.80;;;;;;6214185;28;20022;-67
2022/03/25 09:53:47;;;;;;;3.13;2.60;;;20.00;44.90;;;;;;6185220;28;20026;-67
2022/03/25 09:56:48;;;;;;;3.47;2.53;;;20.00;44.90;;;;;;6198591;28;20085;-67
2022/03/25 09:59:48;;;;;;;3.63;2.40;;;20.00;45.60;;;;;;6198562;28;20066;-68
2022/03/25 10:02:50;;;;;;;3.97;2.65;;;20.00;44.90;;;;;;6198727;28;20478;-68
2022/03/25 10:05:55;;;;;;;4.30;2.92;;;20.00;45.00;;;;;;6198103;28;20073;-67
2022/03/25 10:08:58;;;;;;;4.32;2.85;;;20.00;44.90;;;;;;6198800;28;20022;-67
2022/03/25 10:11:58;;;;;;;4.25;2.47;;;19.90;44.80;;;;;;6198023;28;20121;-67
2022/03/25 10:15:21;;;;;;;4.43;2.65;;;19.90;44.80;;;;;;6198268;28;20498;-67
2022/03/25 10:18:21;;;;;;;5.68;3.28;;;20.00;45.00;;;;;;6198608;28;20034;-67
2022/03/25 10:21:23;;;;;;;5.50;2.83;;;20.00;45.00;;;;;;6198004;28;20470;-67
2022/03/25 10:24:40;;;;;;;6.88;3.35;;;19.90;44.90;;;;;;6197758;28;20113;-67
2022/03/25 10:27:40;;;;;;;6.93;3.65;;;19.90;44.90;;;;;;6197695;28;20054;-67
2022/03/25 10:30:41;;;;;;;9.85;4.47;;;19.90;44.90;;;;;;6197282;28;20461;-68
2022/03/25 10:33:44;;;;;;;7.93;4.30;;;19.90;44.90;;;;;;6197932;28;20065;-68
2022/03/25 10:36:59;;;;;;;9.60;4.43;;;19.90;44.90;;;;;;6185365;28;20018;-67
2022/03/25 10:39:59;;;;;;;10.57;4.40;;;19.90;45.00;;;;;;6177185;28;20101;-68
2022/03/25 10:43:08;;;;;;;10.18;4.88;;;19.90;45.00;;;;;;6180918;28;20022;-68
2022/03/25 10:46:31;;;;;;;9.30;4.40;;;19.90;44.90;;;;;;6185011;28;20041;-67
2022/03/25 10:49:39;;;;;;;9.60;4.45;;;19.90;45.00;;;;;;6205420;28;20102;-67
2022/03/25 10:52:40;;;;;;;9.27;4.68;;;19.90;45.00;;;;;;6214335;28;20038;-67
2022/03/25 10:55:51;;;;;;;9.57;4.20;;;19.90;45.00;;;;;;6197202;28;20169;-68
2022/03/25 10:58:56;;;;;;;11.50;5.05;;;19.90;45.00;;;;;;6187892;28;20030;-68
2022/03/25 11:02:08;;;;;;;10.35;4.85;;;19.90;45.10;;;;;;6195561;28;20019;-67
2022/03/25 11:05:09;;;;;;;10.93;5.32;;;19.90;45.10;;;;;;6196977;28;20481;-68
2022/03/25 11:08:10;;;;;;;12.23;5.45;;;19.90;45.10;;;;;;6197080;28;20030;-67
2022/03/25 11:11:11;;;;;;;14.55;5.38;;;19.90;45.20;;;;;;6197062;28;20033;-67
2022/03/25 11:14:13;;;;;;;11.65;5.45;;;19.90;45.10;;;;;;6196925;28;20030;-67
2022/03/25 11:17:15;;;;;;;9.88;4.95;;;19.90;45.20;;;;;;6196782;28;20092;-68
2022/03/25 11:20:18;;;;;;;10.90;5.18;;;19.90;45.10;;;;;;6195564;28;20486;-67
2022/03/25 11:23:30;;;;;;;13.07;5.55;;;19.90;45.10;;;;;;6196931;28;20037;-68
2022/03/25 11:26:30;;;;;;;9.68;4.90;;;20.00;45.30;;;;;;6193982;28;20031;-67
2022/03/25 11:29:33;;;;;;;13.88;5.25;;;19.90;45.20;;;;;;6196437;28;20037;-68
2022/03/25 11:32:34;;;;;;;9.25;4.90;;;19.90;45.20;;;;;;6196363;28;20109;-67
2022/03/25 11:35:39;;;;;;;11.70;5.60;;;19.90;45.20;;;;;;6196536;28;20080;-68
2022/03/25 11:38:44;;;;;;;9.68;4.82;;;19.90;45.90;;;;;;6195817;28;20018;-68
2022/03/25 11:41:44;;;;;;;10.10;4.65;;;19.90;45.30;;;;;;6196250;28;20022;-68
2022/03/25 11:44:45;;;;;;;8.77;4.57;;;19.90;45.30;;;;;;6195213;28;20034;-68
2022/03/25 11:47:55;;;;;;;11.13;5.43;;;19.90;45.20;;;;;;6196058;28;20394;-67
2022/03/25 11:50:55;;;;;;;9.00;4.57;;;19.90;45.30;;;;;;6215310;28;20025;-68
2022/03/25 11:53:56;;;;;;;9.15;4.95;;;19.90;45.30;;;;;;6210485;28;20057;-67
2022/03/25 11:56:57;;;;;;;9.98;4.68;;;19.90;45.30;;;;;;6196286;28;20045;-68
2022/03/25 12:00:00;;;;;;;10.88;5.28;;;19.90;45.30;;;;;;6195694;28;20055;-67
2022/03/25 12:03:03;;;;;;;12.35;5.35;;;19.90;45.30;;;;;;6196103;28;20030;-68
2022/03/25 12:06:04;;;;;;;12.20;5.93;;;19.90;45.30;;;;;;6195963;28;20077;-67
2022/03/25 12:09:18;;;;;;;11.02;5.28;;;19.90;45.30;;;;;;6195828;28;20058;-67
2022/03/25 12:12:19;;;;;;;10.45;5.45;;;19.90;45.30;;;;;;6195188;28;20033;-67
2022/03/25 12:15:20;;;;;;;10.35;4.82;;;19.90;45.30;;;;;;6195001;28;20548;-67
2022/03/25 12:18:46;;;;;;;11.13;5.38;;;19.90;45.30;;;;;;6195434;28;20106;-68
2022/03/25 12:21:46;;;;;;;;;;;19.90;45.30;;;;;;6195986;28;20052;-67
2022/03/25 12:24:48;;;;;;;9.38;4.88;;;19.90;45.30;;;;;;6194799;28;19992;-67
2022/03/25 12:27:52;;;;;;;10.85;4.88;;;19.90;45.30;;;;;;6195482;28;20054;-67
2022/03/25 12:30:54;;;;;;;10.43;5.28;;;19.90;45.40;;;;;;6195206;28;20026;-68
2022/03/25 12:33:56;;;;;;;11.20;5.25;;;19.90;45.40;;;;;;6195042;28;20065;-68
2022/03/25 12:36:59;;;;;;;10.88;5.38;;;19.90;45.40;;;;;;6195306;28;20030;-68
2022/03/25 12:40:27;;;;;;;11.82;5.28;;;19.90;45.40;;;;;;6195111;28;20157;-68
2022/03/25 12:43:29;;;;;;;9.85;5.20;;;19.90;45.50;;;;;;6195038;28;20014;-67
2022/03/25 12:46:30;;;;;;;9.43;4.80;;;19.90;45.50;;;;;;6195353;28;20030;-68
2022/03/25 12:49:32;;;;;;;10.88;4.80;;;19.90;45.40;;;;;;6202807;28;20053;-68
2022/03/25 12:52:33;;;;;;;11.02;6.18;;;19.90;45.30;;;;;;6219591;28;20497;-68
2022/03/25 12:55:33;;;;;;;9.75;4.82;;;19.90;45.50;;;;;;6219233;28;20076;-68
2022/03/25 12:58:39;;;;;;;13.50;5.28;;;19.90;45.40;;;;;;6219709;28;20022;-68
2022/03/25 13:01:45;;;;;;;8.70;4.65;;;19.90;45.40;;;;;;6219416;28;20362;-68
2022/03/25 13:04:45;;;;;;;9.40;4.90;;;19.90;45.50;;;;;;6218930;28;20018;-68
2022/03/25 13:07:54;;;;;;;9.07;4.57;;;19.90;45.50;;;;;;6219335;28;20037;-67
2022/03/25 13:10:58;;;;;;;9.93;4.75;;;19.90;45.50;;;;;;6213225;28;20022;-68
2022/03/25 13:13:59;;;;;;;9.75;4.97;;;19.90;45.50;;;;;;6208032;28;20468;-68
2022/03/25 13:16:59;;;;;;;11.18;4.80;;;20.00;45.60;;;;;;6219102;28;20030;-68
2022/03/25 13:20:00;;;;;;;8.18;4.53;;;19.90;45.50;;;;;;6217421;28;20377;-67
2022/03/25 13:23:10;;;;;;;9.45;4.82;;;20.00;45.60;;;;;;6218695;28;20033;-68
2022/03/25 13:26:11;;;;;;;11.13;5.07;;;19.90;45.60;;;;;;6222950;28;20481;-67
2022/03/25 13:29:12;;;;;;;10.43;4.60;;;19.90;45.60;;;;;;6217956;28;20057;-68
2022/03/25 13:32:34;;;;;;;9.07;4.78;;;19.90;45.60;;;;;;6199356;28;20026;-67
2022/03/25 13:35:37;;;;;;;7.68;4.13;;;19.90;45.50;;;;;;6198193;28;20026;-67
2022/03/25 13:38:38;;;;;;;7.97;4.55;;;19.90;45.60;;;;;;6198808;28;20030;-67
2022/03/25 13:41:38;;;;;;;10.35;5.43;;;19.90;45.60;;;;;;6199191;28;20408;-67
2022/03/25 13:44:39;;;;;;;7.78;4.60;;;20.00;45.60;;;;;;6197517;28;20428;-67
2022/03/25 13:47:39;;;;;;;10.18;4.78;;;19.90;45.50;;;;;;6198691;28;20093;-67
2022/03/25 13:50:52;;;;;;;9.73;4.78;;;20.00;45.60;;;;;;6196614;28;20026;-67
2022/03/25 13:54:10;;;;;;;11.48;4.53;;;19.90;45.60;;;;;;6197407;28;20038;-68
2022/03/25 13:57:16;;;;;;;12.00;4.45;;;19.90;45.60;;;;;;6196674;28;20039;-67
2022/03/25 14:00:17;;;;;;;8.82;4.60;;;19.90;45.60;;;;;;6197717;28;20405;-68
2022/03/25 14:03:29;;;;;;;9.20;4.35;;;19.90;45.60;;;;;;6197861;28;20030;-67
2022/03/25 14:06:35;;;;;;;7.82;4.30;;;19.90;45.60;;;;;;6197745;28;20420;-67
2022/03/25 14:09:38;;;;;;;8.07;4.28;;;19.90;45.60;;;;;;6196709;28;20423;-67
2022/03/25 14:12:38;;;;;;;8.77;4.55;;;20.00;45.60;;;;;;6198609;28;20410;-68
2022/03/25 14:15:39;;;;;;;8.10;4.18;;;20.00;45.70;;;;;;6197488;28;20332;-68
2022/03/25 14:18:54;;;;;;;7.55;3.92;;;19.90;45.60;;;;;;6197786;28;20037;-67
2022/03/25 14:21:55;;;;;;;8.00;4.32;;;19.90;45.60;;;;;;6197337;28;20057;-67
2022/03/25 14:24:55;;;;;;;8.23;4.50;;;19.90;45.60;;;;;;6195959;28;20038;-67
2022/03/25 14:28:01;;;;;;;8.63;4.43;;;20.00;45.70;;;;;;6197046;28;20512;-67
2022/03/25 14:31:04;;;;;;;8.30;3.90;;;20.00;45.70;;;;;;6197465;28;20149;-68
2022/03/25 14:34:05;;;;;;;6.15;3.90;;;19.90;45.60;;;;;;6196678;28;20035;-67
2022/03/25 14:37:06;;;;;;;8.23;4.25;;;19.90;45.70;;;;;;6196405;28;20026;-67
2022/03/25 14:40:07;;;;;;;7.47;3.63;;;19.90;45.70;;;;;;6175873;28;20114;-68
2022/03/25 14:43:07;;;;;;;7.57;3.95;;;20.00;45.70;;;;;;6180847;28;20486;-67
2022/03/25 14:46:08;;;;;;;8.27;3.90;;;19.90;45.70;;;;;;6196495;28;20037;-68
2022/03/25 14:49:09;;;;;;;7.70;4.07;;;19.90;45.70;;;;;;6196815;28;20034;-67
2022/03/25 14:52:10;;;;;;;6.95;4.05;;;19.90;45.70;;;;;;6197072;28;20081;-67
2022/03/25 14:55:18;;;;;;;8.25;4.32;;;19.90;45.70;;;;;;6196565;28;20022;-67
2022/03/25 14:58:18;;;;;;;7.35;3.92;;;19.90;45.70;;;;;;6196671;28;20028;-68
2022/03/25 15:01:19;;;;;;;5.45;3.63;;;20.00;45.80;;;;;;6196612;28;20460;-67
2022/03/25 15:04:20;;;;;;;5.82;3.47;;;19.90;45.70;;;;;;6196153;28;20050;-68
2022/03/25 15:07:20;;;;;;;7.03;3.72;;;19.90;45.70;;;;;;6196347;28;20038;-68
2022/03/25 15:10:21;;;;;;;6.35;3.75;;;19.90;45.70;;;;;;6196571;28;20465;-67
2022/03/25 15:13:21;;;;;;;7.28;3.80;;;20.00;45.80;;;;;;6195914;28;20029;-67
2022/03/25 15:16:26;;;;;;;6.32;3.90;;;19.90;45.70;;;;;;6196687;28;20033;-67
2022/03/25 15:19:26;;;;;;;7.07;3.65;;;20.00;45.80;;;;;;6195897;28;20022;-68
2022/03/25 15:22:27;;;;;;;7.05;3.47;;;19.90;45.80;;;;;;6189759;28;20036;-67
2022/03/25 15:25:27;;;;;;;5.20;3.17;;;19.90;45.80;;;;;;6185585;28;20028;-68
2022/03/25 15:28:29;;;;;;;6.97;3.67;;;19.90;45.80;;;;;;6220160;28;20050;-68
2022/03/25 15:34:59;;;;;;;5.07;3.13;;;19.90;45.80;;;;;;6175651;28;20042;-67
2022/03/25 15:38:00;;;;;;;6.22;3.70;;;19.90;45.90;;;;;;6195268;28;20034;-67
2022/03/25 15:41:01;;;;;;;6.07;3.50;;;19.90;45.80;;;;;;6195353;28;20037;-67
2022/03/25 15:44:02;;;;;;;5.55;3.20;;;19.90;45.90;;;;;;6195209;28;20022;-67
2022/03/25 15:47:06;;;;;;;6.35;3.10;;;19.90;45.80;;;;;;6195396;28;20497;-67
2022/03/25 15:50:07;;;;;;;5.05;3.22;;;19.90;45.80;;;;;;6195359;28;20026;-68
2022/03/25 15:53:08;;;;;;;4.90;3.28;;;19.80;45.80;;;;;;6192772;28;20038;-68